Energean Wave — SVA6915 — position and weather

sailwx.info

Track history (hours):
 
Tides and Currents Weather Stations Pressure Air Temp Water Temp Dewpoint Dewpoint Depression Visibility Wind Speed Wind Dir Waves Ship Positions

Energean Wave

Last reported at 2017-Nov-23 01:59 UTC. Time now 2017-Nov-23 02:03 UTC.
Position N 40°56' E 024°25'.

Length 47 m; draft 2 m.

Type: . MMSI: 239935100.

Date/timePositionNaut miles runAvg speedWind from/ knotsBaromVisibWave heightAir tempDewpointWater temp
2017-Nov-23 01:59N 40°56' E 024°25'0 0.0
2017-Nov-23 01:05N 40°56' E 024°25'0 0.0
2017-Nov-23 00:59N 40°56' E 024°25'0 0.0
2017-Nov-23 00:08N 40°56' E 024°25'0 0.0
2017-Nov-22 23:41N 40°56' E 024°25'0 0.0
2017-Nov-22 22:47N 40°56' E 024°25'0 0.0
2017-Nov-22 22:23N 40°56' E 024°25'0 0.0
2017-Nov-22 21:59N 40°56' E 024°25'  
2017-Nov-20 00:29N 40°56' E 024°25'0 0.0
2017-Nov-19 23:59N 40°56' E 024°25'0 0.0
2017-Nov-19 23:29N 40°56' E 024°25'0 0.0
2017-Nov-19 22:56N 40°56' E 024°25'0 0.0
2017-Nov-19 22:29N 40°56' E 024°25'0 0.0
2017-Nov-19 21:56N 40°56' E 024°25'0 0.0
2017-Nov-19 21:29N 40°56' E 024°25'0 0.0
2017-Nov-19 20:59N 40°56' E 024°25'0 0.0
2017-Nov-19 20:29N 40°56' E 024°25'0 0.0
2017-Nov-19 19:59N 40°56' E 024°25'0 0.0
2017-Nov-19 19:29N 40°56' E 024°25'0 0.0
2017-Nov-19 18:59N 40°56' E 024°25'0 0.0
2017-Nov-19 18:29N 40°56' E 024°25'0 0.0
2017-Nov-19 17:59N 40°56' E 024°25'0 0.0
2017-Nov-19 17:29N 40°56' E 024°25'0 0.0
2017-Nov-19 16:59N 40°56' E 024°25'0 0.0
2017-Nov-19 16:29N 40°56' E 024°25'0 0.0
2017-Nov-19 15:56N 40°56' E 024°25'0 0.0
2017-Nov-19 15:29N 40°56' E 024°25'0 0.0
2017-Nov-19 14:56N 40°56' E 024°25'0 0.0
2017-Nov-19 14:29N 40°56' E 024°25'0 0.0
2017-Nov-19 13:59N 40°56' E 024°25'0 0.0
2017-Nov-19 13:26N 40°56' E 024°25'0 0.0
2017-Nov-19 12:59N 40°56' E 024°25'0 0.0
2017-Nov-19 12:26N 40°56' E 024°25'0 0.0
2017-Nov-19 11:56N 40°56' E 024°25'0 0.0
2017-Nov-19 11:26N 40°56' E 024°25'0 0.0
2017-Nov-19 10:56N 40°56' E 024°25'0 0.0
2017-Nov-19 10:26N 40°56' E 024°25'0 0.0
2017-Nov-19 09:56N 40°56' E 024°25'0 0.0
2017-Nov-19 09:26N 40°56' E 024°25'0 0.0
2017-Nov-19 08:56N 40°56' E 024°25'0 0.0
2017-Nov-19 08:26N 40°56' E 024°25'0 0.0
2017-Nov-19 07:56N 40°56' E 024°25'0 0.0
2017-Nov-19 07:26N 40°56' E 024°25'0 0.0
2017-Nov-19 06:56N 40°56' E 024°25'0 0.0
2017-Nov-19 06:26N 40°56' E 024°25'0 0.0
2017-Nov-19 05:56N 40°56' E 024°25'0 0.0
2017-Nov-19 05:26N 40°56' E 024°25'0 0.0
2017-Nov-19 04:56N 40°56' E 024°25'0 0.0
2017-Nov-19 04:29N 40°56' E 024°25'0 0.0
2017-Nov-19 03:56N 40°56' E 024°25'0 0.0
2017-Nov-19 03:26N 40°56' E 024°25'0 0.0
2017-Nov-19 02:59N 40°56' E 024°25'0 0.0
2017-Nov-19 02:29N 40°56' E 024°25'0 0.0
2017-Nov-19 01:59N 40°56' E 024°25'0 0.0
2017-Nov-19 01:26N 40°56' E 024°25'0 0.0
2017-Nov-19 00:56N 40°56' E 024°25'0 0.0
2017-Nov-19 00:29N 40°56' E 024°25'0 0.0
2017-Nov-18 23:59N 40°56' E 024°25'0 0.0
2017-Nov-18 23:29N 40°56' E 024°25'0 0.0
2017-Nov-18 22:59N 40°56' E 024°25'3 5.7
2017-Nov-18 22:30N 40°53' E 024°25'612.7
2017-Nov-18 22:00N 40°48' E 024°30'5 9.9
2017-Nov-18 21:30N 40°52' E 024°27'4 7.8
2017-Nov-18 21:00N 40°56' E 024°25'0 0.0
2017-Nov-18 20:30N 40°56' E 024°25'0 0.0
2017-Nov-18 20:00N 40°56' E 024°25'0 0.0
2017-Nov-18 19:27N 40°56' E 024°25'0 0.0
2017-Nov-18 19:00N 40°56' E 024°25'4 7.3
2017-Nov-18 18:31N 40°53' E 024°26'510.1
2017-Nov-18 17:59N 40°48' E 024°30'510.9
2017-Nov-18 17:31N 40°53' E 024°27'4 7.1
2017-Nov-18 17:00N 40°56' E 024°25'0 0.0
2017-Nov-18 16:30N 40°56' E 024°25'0 0.0
2017-Nov-18 16:00N 40°56' E 024°25'0 0.0
2017-Nov-18 15:30N 40°56' E 024°25'0 0.0
2017-Nov-18 14:51N 40°56' E 024°25'3 9.0
2017-Nov-18 14:30N 40°53' E 024°26'6 9.9
2017-Nov-18 13:55N 40°48' E 024°30'513.4
2017-Nov-18 13:30N 40°53' E 024°26'3 5.9
2017-Nov-18 12:55N 40°56' E 024°25'0 0.0
2017-Nov-18 12:25N 40°56' E 024°25'0 0.0
2017-Nov-18 11:58N 40°56' E 024°25'0 0.0
2017-Nov-18 11:28N 40°56' E 024°25'0 0.0
2017-Nov-18 10:58N 40°56' E 024°25'0 0.0
2017-Nov-18 10:28N 40°56' E 024°25'0 0.0
2017-Nov-18 09:58N 40°56' E 024°25'0 0.0
2017-Nov-18 09:22N 40°56' E 024°25'0 0.0
2017-Nov-18 08:58N 40°56' E 024°25'0 0.0
2017-Nov-18 08:25N 40°56' E 024°25'0 0.0
2017-Nov-18 07:55N 40°56' E 024°25'0 0.0
2017-Nov-18 07:28N 40°56' E 024°25'0 0.4
2017-Nov-18 06:59N 40°56' E 024°25'713.7
2017-Nov-18 06:30N 40°50' E 024°28'3 5.2
2017-Nov-18 06:00N 40°48' E 024°30'713.3
2017-Nov-18 05:30N 40°54' E 024°26'3 4.7
2017-Nov-18 04:58N 40°56' E 024°25'0 0.0
2017-Nov-18 04:25N 40°56' E 024°25'0 0.0
2017-Nov-18 03:55N 40°56' E 024°25'0 0.0
2017-Nov-18 03:25N 40°56' E 024°25'0 0.0
2017-Nov-18 02:49N 40°56' E 024°25'0 0.0
2017-Nov-18 02:25N 40°56' E 024°25'0 0.0
2017-Nov-18 01:58N 40°56' E 024°25'0 0.0
2017-Nov-18 01:19N 40°56' E 024°25'0 0.0
2017-Nov-18 00:55N 40°56' E 024°25'0 0.0
2017-Nov-18 00:25N 40°56' E 024°25'0 0.0
2017-Nov-17 23:55N 40°56' E 024°25'0 0.0
2017-Nov-17 23:25N 40°56' E 024°25'0 0.3
2017-Nov-17 23:00N 40°56' E 024°25'714.5
2017-Nov-17 22:29N 40°49' E 024°29'2 3.4
2017-Nov-17 22:01N 40°48' E 024°30'713.6
2017-Nov-17 21:31N 40°54' E 024°26'2 3.8
2017-Nov-17 20:57N 40°56' E 024°25'0 0.0
2017-Nov-17 20:30N 40°56' E 024°25'0 0.0
2017-Nov-17 20:00N 40°56' E 024°25'0 0.0
2017-Nov-17 19:27N 40°56' E 024°25'0 0.0
2017-Nov-17 19:00N 40°56' E 024°25'510.4
2017-Nov-17 18:30N 40°51' E 024°27'4 7.6
2017-Nov-17 18:00N 40°48' E 024°30'5 9.7
2017-Nov-17 17:30N 40°52' E 024°27'4 7.7
2017-Nov-17 16:59N 40°56' E 024°25'0 0.0
2017-Nov-17 16:29N 40°56' E 024°25'0 0.0
2017-Nov-17 15:59N 40°56' E 024°25'0 0.0
2017-Nov-17 15:29N 40°56' E 024°25'0 0.0
2017-Nov-17 14:57N 40°56' E 024°25'510.8
2017-Nov-17 14:30N 40°51' E 024°27'4 7.4
2017-Nov-17 13:57N 40°48' E 024°30'612.6
2017-Nov-17 13:30N 40°53' E 024°26'3 5.2
2017-Nov-17 12:53N 40°56' E 024°25'0 0.0
2017-Nov-17 12:29N 40°56' E 024°25'0 0.0
2017-Nov-17 11:59N 40°56' E 024°25'0 0.0
2017-Nov-17 11:29N 40°56' E 024°25'0 0.0
2017-Nov-17 10:53N 40°56' E 024°25'0 0.0
2017-Nov-17 10:29N 40°56' E 024°25'0 0.0
2017-Nov-17 09:59N 40°56' E 024°25'0 0.0
2017-Nov-17 09:29N 40°56' E 024°25'0 0.0
2017-Nov-17 08:59N 40°56' E 024°25'0 0.0
2017-Nov-17 08:29N 40°56' E 024°25'0 0.0
2017-Nov-17 07:56N 40°56' E 024°25'0 0.0
2017-Nov-17 07:29N 40°56' E 024°25'0 0.0
2017-Nov-17 07:00N 40°56' E 024°25'611.0
2017-Nov-17 06:30N 40°51' E 024°28'3 6.6
2017-Nov-17 05:59N 40°48' E 024°30'511.1
2017-Nov-17 05:30N 40°53' E 024°26'4 6.7
2017-Nov-17 04:59N 40°56' E 024°25'0 0.0
2017-Nov-17 04:29N 40°56' E 024°25'0 0.0
2017-Nov-17 03:56N 40°56' E 024°25'0 0.0
2017-Nov-17 03:29N 40°56' E 024°25'0 0.0
2017-Nov-17 02:59N 40°56' E 024°25'0 0.0
2017-Nov-17 02:26N 40°56' E 024°25'0 0.0
2017-Nov-17 01:56N 40°56' E 024°25'0 0.0
2017-Nov-17 01:29N 40°56' E 024°25'0 0.0
2017-Nov-17 00:59N 40°56' E 024°25'0 0.0
2017-Nov-17 00:29N 40°56' E 024°25'0 0.0
2017-Nov-16 23:59N 40°56' E 024°25'0 0.0
2017-Nov-16 23:29N 40°56' E 024°25'0 0.0
2017-Nov-16 22:59N 40°56' E 024°25'4 8.9
2017-Nov-16 22:30N 40°52' E 024°27'5 9.0
2017-Nov-16 21:59N 40°48' E 024°30'511.4
2017-Nov-16 21:31N 40°53' E 024°26'3 2.6
2017-Nov-16 20:11N 40°56' E 024°25'0 0.0
2017-Nov-16 19:59N 40°56' E 024°25'0 0.0
2017-Nov-16 19:29N 40°56' E 024°25'0 0.2
2017-Nov-16 19:00N 40°56' E 024°25'814.6
2017-Nov-16 18:29N 40°49' E 024°30'2 2.9
2017-Nov-16 17:57N 40°48' E 024°30'511.9
2017-Nov-16 17:30N 40°53' E 024°26'4 7.0
2017-Nov-16 16:59N 40°56' E 024°25'0 0.0
2017-Nov-16 16:29N 40°56' E 024°25'0 0.0
2017-Nov-16 15:59N 40°56' E 024°25'0 0.0
2017-Nov-16 15:29N 40°56' E 024°25'0 0.0
2017-Nov-16 14:59N 40°56' E 024°25'511.1
2017-Nov-16 14:30N 40°51' E 024°27'4 7.1
2017-Nov-16 14:00N 40°48' E 024°30'510.6
2017-Nov-16 13:30N 40°53' E 024°26'4 6.7
2017-Nov-16 12:58N 40°56' E 024°25'0 0.0
2017-Nov-16 12:28N 40°56' E 024°25'2 4.7
2017-Nov-16 12:00N 40°54' E 024°25'714.1
2017-Nov-16 11:30N 40°48' E 024°30'4 8.9
2017-Nov-16 11:00N 40°52' E 024°27'5 7.6
2017-Nov-16 10:24N 40°56' E 024°25'0 0.0
2017-Nov-16 10:00N 40°56' E 024°25'0 0.0
2017-Nov-16 09:30N 40°56' E 024°25'0 0.0
2017-Nov-16 08:57N 40°56' E 024°25'0 0.0
2017-Nov-16 08:27N 40°56' E 024°25'0 0.0
2017-Nov-16 07:39N 40°56' E 024°25'0 0.0
2017-Nov-16 07:30N 40°56' E 024°25'0 0.0
2017-Nov-16 07:00N 40°56' E 024°25'0 0.0
2017-Nov-16 06:30N 40°56' E 024°25'0 0.0
2017-Nov-16 06:00N 40°56' E 024°25'0 0.0
2017-Nov-16 05:30N 40°56' E 024°25'0 0.0
2017-Nov-16 05:00N 40°56' E 024°25'0 0.0
2017-Nov-16 04:30N 40°56' E 024°25'0 0.0
2017-Nov-16 03:54N 40°56' E 024°25'0 0.0
2017-Nov-16 03:30N 40°56' E 024°25'0 0.0
2017-Nov-16 03:00N 40°56' E 024°25'0 0.0
2017-Nov-16 02:30N 40°56' E 024°25'0 0.0
2017-Nov-16 02:00N 40°56' E 024°25'0 0.0
2017-Nov-16 01:24N 40°56' E 024°25'0 0.0
2017-Nov-16 01:00N 40°56' E 024°25'0 0.0
2017-Nov-16 00:30N 40°56' E 024°25'0 0.0
2017-Nov-16 00:00N 40°56' E 024°25'0 0.0
2017-Nov-15 23:30N 40°56' E 024°25'0 0.0
2017-Nov-15 23:00N 40°56' E 024°25'510.1
2017-Nov-15 22:30N 40°52' E 024°28'4 7.2
2017-Nov-15 21:58N 40°48' E 024°30'512.0
2017-Nov-15 21:31N 40°53' E 024°26'3 6.7
2017-Nov-15 21:00N 40°56' E 024°25'0 0.0
2017-Nov-15 20:27N 40°56' E 024°25'0 0.0
2017-Nov-15 19:54N 40°56' E 024°25'0 0.0
2017-Nov-15 19:30N 40°56' E 024°25'0 0.3
2017-Nov-15 19:00N 40°56' E 024°25'713.7
2017-Nov-15 18:31N 40°50' E 024°30'2 4.9
2017-Nov-15 18:00N 40°48' E 024°30'510.1
2017-Nov-15 17:30N 40°52' E 024°27'4 7.4
2017-Nov-15 16:59N 40°56' E 024°25'0 0.0
2017-Nov-15 16:29N 40°56' E 024°25'0 0.0
2017-Nov-15 15:59N 40°56' E 024°25'0 0.0
2017-Nov-15 15:23N 40°56' E 024°25'0 0.4
2017-Nov-15 15:01N 40°56' E 024°25'612.5
2017-Nov-15 14:30N 40°51' E 024°29'3 5.5
2017-Nov-15 14:00N 40°48' E 024°30'612.0
2017-Nov-15 13:30N 40°53' E 024°26'3 5.8
2017-Nov-15 12:59N 40°56' E 024°25'0 0.0
2017-Nov-15 12:29N 40°56' E 024°25'0 0.0
2017-Nov-15 11:59N 40°56' E 024°25'0 0.0
2017-Nov-15 11:26N 40°56' E 024°25'0 0.0
2017-Nov-15 10:59N 40°56' E 024°25'0 0.0
2017-Nov-15 10:29N 40°56' E 024°25'0 0.0
2017-Nov-15 09:59N 40°56' E 024°25'0 0.0
2017-Nov-15 09:14N 40°56' E 024°25'0 0.0
2017-Nov-15 08:59N 40°56' E 024°25'0 0.0
2017-Nov-15 08:29N 40°56' E 024°25'0 0.0
2017-Nov-15 07:59N 40°56' E 024°25'0 0.0
2017-Nov-15 07:29N 40°56' E 024°25'0 0.4
2017-Nov-15 07:00N 40°56' E 024°25'611.5
2017-Nov-15 06:29N 40°51' E 024°28'3 6.3
2017-Nov-15 06:00N 40°48' E 024°30'611.2
2017-Nov-15 05:31N 40°53' E 024°26'3 6.4
2017-Nov-15 05:00N 40°56' E 024°25'0 0.0
2017-Nov-15 04:30N 40°56' E 024°25'0 0.0
2017-Nov-15 04:00N 40°56' E 024°25'0 0.0
2017-Nov-15 03:30N 40°56' E 024°25'0 0.0
2017-Nov-15 03:00N 40°56' E 024°25'0 0.0
2017-Nov-15 02:30N 40°56' E 024°25'0 0.0
2017-Nov-15 02:00N 40°56' E 024°25'0 0.0
2017-Nov-15 01:30N 40°56' E 024°25'0 0.0
2017-Nov-15 01:00N 40°56' E 024°25'0 0.0
2017-Nov-15 00:27N 40°56' E 024°25'0 0.0
2017-Nov-14 23:57N 40°56' E 024°25'0 0.0
2017-Nov-14 23:30N 40°56' E 024°25'0 0.0
2017-Nov-14 23:00N 40°56' E 024°25'0 0.0
2017-Nov-14 22:27N 40°56' E 024°25'0 0.0
2017-Nov-14 22:00N 40°56' E 024°25'0 0.0
2017-Nov-14 21:30N 40°56' E 024°25'0 0.0
2017-Nov-14 21:00N 40°56' E 024°25'0 0.0
2017-Nov-14 20:30N 40°56' E 024°25'0 0.0
2017-Nov-14 20:00N 40°56' E 024°25'0 0.0
2017-Nov-14 19:30N 40°56' E 024°25'0 0.0
2017-Nov-14 18:57N 40°56' E 024°25'0 0.0
2017-Nov-14 18:30N 40°56' E 024°25'0 0.0
2017-Nov-14 18:00N 40°56' E 024°25'0 0.0
2017-Nov-14 17:30N 40°56' E 024°25'0 0.0
2017-Nov-14 17:00N 40°56' E 024°25'0 0.0
2017-Nov-14 16:30N 40°56' E 024°25'0 0.0
2017-Nov-14 16:00N 40°56' E 024°25'0 0.0
2017-Nov-14 15:30N 40°56' E 024°25'0 0.0
2017-Nov-14 15:00N 40°56' E 024°25'5 9.6
2017-Nov-14 14:30N 40°51' E 024°27'4 8.7
2017-Nov-14 14:00N 40°48' E 024°30'612.2
2017-Nov-14 13:30N 40°53' E 024°26'3 6.1
2017-Nov-14 13:01N 40°56' E 024°25'0 0.0
2017-Nov-14 12:31N 40°56' E 024°25'0 0.0
2017-Nov-14 12:01N 40°56' E 024°25'0 0.0
2017-Nov-14 11:31N 40°56' E 024°25'0 0.0
2017-Nov-14 11:01N 40°56' E 024°25'0 0.0
2017-Nov-14 10:28N 40°56' E 024°25'0 0.0
2017-Nov-14 09:58N 40°56' E 024°25'0 0.0
2017-Nov-14 09:27N 40°56' E 024°25'0 0.0
2017-Nov-14 08:57N 40°56' E 024°25'0 0.0
2017-Nov-14 08:28N 40°56' E 024°25'0 0.0
2017-Nov-14 07:46N 40°56' E 024°25'0 0.0
2017-Nov-14 07:30N 40°56' E 024°25'0 0.0
2017-Nov-14 06:58N 40°56' E 024°25'613.1
2017-Nov-14 06:29N 40°50' E 024°28'3 5.7
2017-Nov-14 06:00N 40°48' E 024°30'510.9
2017-Nov-14 05:30N 40°53' E 024°26'3 6.9
2017-Nov-14 05:00N 40°56' E 024°25'0 0.0
2017-Nov-14 04:27N 40°56' E 024°25'0 0.0
2017-Nov-14 04:00N 40°56' E 024°25'0 0.0
2017-Nov-14 03:30N 40°56' E 024°25'0 0.0
2017-Nov-14 03:00N 40°56' E 024°25'0 0.0
2017-Nov-14 02:30N 40°56' E 024°25'0 0.0
2017-Nov-14 02:00N 40°56' E 024°25'0 0.0
2017-Nov-14 01:30N 40°56' E 024°25'0 0.0
2017-Nov-14 01:00N 40°56' E 024°25'0 0.0
2017-Nov-14 00:30N 40°56' E 024°25'0 0.0
2017-Nov-14 00:00N 40°56' E 024°25'0 0.0
2017-Nov-13 23:27N 40°56' E 024°25'0 0.0
2017-Nov-13 22:54N 40°56' E 024°25'0 0.0
2017-Nov-13 22:24N 40°56' E 024°25'0 0.0
2017-Nov-13 22:00N 40°56' E 024°25'  
Track history (hours):
 
Tides and Currents Weather Stations Pressure Air Temp Water Temp Dewpoint Dewpoint Depression Visibility Wind Speed Wind Dir Waves Ship Positions

Energean Wave

Last reported at 2017-Nov-23 01:59 UTC. Time now 2017-Nov-23 02:03 UTC.
Position N 40°56' E 024°25'.

Length 47 m; draft 2 m.

Type: . MMSI: 239935100.

Date/timePositionNaut miles runAvg speedWind from/ knotsBaromVisibWave heightAir tempDewpointWater temp
2017-Nov-23 01:59N 40°56' E 024°25'0 0.0
2017-Nov-23 01:05N 40°56' E 024°25'0 0.0
2017-Nov-23 00:59N 40°56' E 024°25'0 0.0
2017-Nov-23 00:08N 40°56' E 024°25'0 0.0
2017-Nov-22 23:41N 40°56' E 024°25'0 0.0
2017-Nov-22 22:47N 40°56' E 024°25'0 0.0
2017-Nov-22 22:23N 40°56' E 024°25'0 0.0
2017-Nov-22 21:59N 40°56' E 024°25'  
2017-Nov-20 00:29N 40°56' E 024°25'0 0.0
2017-Nov-19 23:59N 40°56' E 024°25'0 0.0
2017-Nov-19 23:29N 40°56' E 024°25'0 0.0
2017-Nov-19 22:56N 40°56' E 024°25'0 0.0
2017-Nov-19 22:29N 40°56' E 024°25'0 0.0
2017-Nov-19 21:56N 40°56' E 024°25'0 0.0
2017-Nov-19 21:29N 40°56' E 024°25'0 0.0
2017-Nov-19 20:59N 40°56' E 024°25'0 0.0
2017-Nov-19 20:29N 40°56' E 024°25'0 0.0
2017-Nov-19 19:59N 40°56' E 024°25'0 0.0
2017-Nov-19 19:29N 40°56' E 024°25'0 0.0
2017-Nov-19 18:59N 40°56' E 024°25'0 0.0
2017-Nov-19 18:29N 40°56' E 024°25'0 0.0
2017-Nov-19 17:59N 40°56' E 024°25'0 0.0
2017-Nov-19 17:29N 40°56' E 024°25'0 0.0
2017-Nov-19 16:59N 40°56' E 024°25'0 0.0
2017-Nov-19 16:29N 40°56' E 024°25'0 0.0
2017-Nov-19 15:56N 40°56' E 024°25'0 0.0
2017-Nov-19 15:29N 40°56' E 024°25'0 0.0
2017-Nov-19 14:56N 40°56' E 024°25'0 0.0
2017-Nov-19 14:29N 40°56' E 024°25'0 0.0
2017-Nov-19 13:59N 40°56' E 024°25'0 0.0
2017-Nov-19 13:26N 40°56' E 024°25'0 0.0
2017-Nov-19 12:59N 40°56' E 024°25'0 0.0
2017-Nov-19 12:26N 40°56' E 024°25'0 0.0
2017-Nov-19 11:56N 40°56' E 024°25'0 0.0
2017-Nov-19 11:26N 40°56' E 024°25'0 0.0
2017-Nov-19 10:56N 40°56' E 024°25'0 0.0
2017-Nov-19 10:26N 40°56' E 024°25'0 0.0
2017-Nov-19 09:56N 40°56' E 024°25'0 0.0
2017-Nov-19 09:26N 40°56' E 024°25'0 0.0
2017-Nov-19 08:56N 40°56' E 024°25'0 0.0
2017-Nov-19 08:26N 40°56' E 024°25'0 0.0
2017-Nov-19 07:56N 40°56' E 024°25'0 0.0
2017-Nov-19 07:26N 40°56' E 024°25'0 0.0
2017-Nov-19 06:56N 40°56' E 024°25'0 0.0
2017-Nov-19 06:26N 40°56' E 024°25'0 0.0
2017-Nov-19 05:56N 40°56' E 024°25'0 0.0
2017-Nov-19 05:26N 40°56' E 024°25'0 0.0
2017-Nov-19 04:56N 40°56' E 024°25'0 0.0
2017-Nov-19 04:29N 40°56' E 024°25'0 0.0
2017-Nov-19 03:56N 40°56' E 024°25'0 0.0
2017-Nov-19 03:26N 40°56' E 024°25'0 0.0
2017-Nov-19 02:59N 40°56' E 024°25'0 0.0
2017-Nov-19 02:29N 40°56' E 024°25'0 0.0
2017-Nov-19 01:59N 40°56' E 024°25'0 0.0
2017-Nov-19 01:26N 40°56' E 024°25'0 0.0
2017-Nov-19 00:56N 40°56' E 024°25'0 0.0
2017-Nov-19 00:29N 40°56' E 024°25'0 0.0
2017-Nov-18 23:59N 40°56' E 024°25'0 0.0
2017-Nov-18 23:29N 40°56' E 024°25'0 0.0
2017-Nov-18 22:59N 40°56' E 024°25'3 5.7
2017-Nov-18 22:30N 40°53' E 024°25'612.7
2017-Nov-18 22:00N 40°48' E 024°30'5 9.9
2017-Nov-18 21:30N 40°52' E 024°27'4 7.8
2017-Nov-18 21:00N 40°56' E 024°25'0 0.0
2017-Nov-18 20:30N 40°56' E 024°25'0 0.0
2017-Nov-18 20:00N 40°56' E 024°25'0 0.0
2017-Nov-18 19:27N 40°56' E 024°25'0 0.0
2017-Nov-18 19:00N 40°56' E 024°25'4 7.3
2017-Nov-18 18:31N 40°53' E 024°26'510.1
2017-Nov-18 17:59N 40°48' E 024°30'510.9
2017-Nov-18 17:31N 40°53' E 024°27'4 7.1
2017-Nov-18 17:00N 40°56' E 024°25'0 0.0
2017-Nov-18 16:30N 40°56' E 024°25'0 0.0
2017-Nov-18 16:00N 40°56' E 024°25'0 0.0
2017-Nov-18 15:30N 40°56' E 024°25'0 0.0
2017-Nov-18 14:51N 40°56' E 024°25'3 9.0
2017-Nov-18 14:30N 40°53' E 024°26'6 9.9
2017-Nov-18 13:55N 40°48' E 024°30'513.4
2017-Nov-18 13:30N 40°53' E 024°26'3 5.9
2017-Nov-18 12:55N 40°56' E 024°25'0 0.0
2017-Nov-18 12:25N 40°56' E 024°25'0 0.0
2017-Nov-18 11:58N 40°56' E 024°25'0 0.0
2017-Nov-18 11:28N 40°56' E 024°25'0 0.0
2017-Nov-18 10:58N 40°56' E 024°25'0 0.0
2017-Nov-18 10:28N 40°56' E 024°25'0 0.0
2017-Nov-18 09:58N 40°56' E 024°25'0 0.0
2017-Nov-18 09:22N 40°56' E 024°25'0 0.0
2017-Nov-18 08:58N 40°56' E 024°25'0 0.0
2017-Nov-18 08:25N 40°56' E 024°25'0 0.0
2017-Nov-18 07:55N 40°56' E 024°25'0 0.0
2017-Nov-18 07:28N 40°56' E 024°25'0 0.4
2017-Nov-18 06:59N 40°56' E 024°25'713.7
2017-Nov-18 06:30N 40°50' E 024°28'3 5.2
2017-Nov-18 06:00N 40°48' E 024°30'713.3
2017-Nov-18 05:30N 40°54' E 024°26'3 4.7
2017-Nov-18 04:58N 40°56' E 024°25'0 0.0
2017-Nov-18 04:25N 40°56' E 024°25'0 0.0
2017-Nov-18 03:55N 40°56' E 024°25'0 0.0
2017-Nov-18 03:25N 40°56' E 024°25'0 0.0
2017-Nov-18 02:49N 40°56' E 024°25'0 0.0
2017-Nov-18 02:25N 40°56' E 024°25'0 0.0
2017-Nov-18 01:58N 40°56' E 024°25'0 0.0
2017-Nov-18 01:19N 40°56' E 024°25'0 0.0
2017-Nov-18 00:55N 40°56' E 024°25'0 0.0
2017-Nov-18 00:25N 40°56' E 024°25'0 0.0
2017-Nov-17 23:55N 40°56' E 024°25'0 0.0
2017-Nov-17 23:25N 40°56' E 024°25'0 0.3
2017-Nov-17 23:00N 40°56' E 024°25'714.5
2017-Nov-17 22:29N 40°49' E 024°29'2 3.4
2017-Nov-17 22:01N 40°48' E 024°30'713.6
2017-Nov-17 21:31N 40°54' E 024°26'2 3.8
2017-Nov-17 20:57N 40°56' E 024°25'0 0.0
2017-Nov-17 20:30N 40°56' E 024°25'0 0.0
2017-Nov-17 20:00N 40°56' E 024°25'0 0.0
2017-Nov-17 19:27N 40°56' E 024°25'0 0.0
2017-Nov-17 19:00N 40°56' E 024°25'510.4
2017-Nov-17 18:30N 40°51' E 024°27'4 7.6
2017-Nov-17 18:00N 40°48' E 024°30'5 9.7
2017-Nov-17 17:30N 40°52' E 024°27'4 7.7
2017-Nov-17 16:59N 40°56' E 024°25'0 0.0
2017-Nov-17 16:29N 40°56' E 024°25'0 0.0
2017-Nov-17 15:59N 40°56' E 024°25'0 0.0
2017-Nov-17 15:29N 40°56' E 024°25'0 0.0
2017-Nov-17 14:57N 40°56' E 024°25'510.8
2017-Nov-17 14:30N 40°51' E 024°27'4 7.4
2017-Nov-17 13:57N 40°48' E 024°30'612.6
2017-Nov-17 13:30N 40°53' E 024°26'3 5.2
2017-Nov-17 12:53N 40°56' E 024°25'0 0.0
2017-Nov-17 12:29N 40°56' E 024°25'0 0.0
2017-Nov-17 11:59N 40°56' E 024°25'0 0.0
2017-Nov-17 11:29N 40°56' E 024°25'0 0.0
2017-Nov-17 10:53N 40°56' E 024°25'0 0.0
2017-Nov-17 10:29N 40°56' E 024°25'0 0.0
2017-Nov-17 09:59N 40°56' E 024°25'0 0.0
2017-Nov-17 09:29N 40°56' E 024°25'0 0.0
2017-Nov-17 08:59N 40°56' E 024°25'0 0.0
2017-Nov-17 08:29N 40°56' E 024°25'0 0.0
2017-Nov-17 07:56N 40°56' E 024°25'0 0.0
2017-Nov-17 07:29N 40°56' E 024°25'0 0.0
2017-Nov-17 07:00N 40°56' E 024°25'611.0
2017-Nov-17 06:30N 40°51' E 024°28'3 6.6
2017-Nov-17 05:59N 40°48' E 024°30'511.1
2017-Nov-17 05:30N 40°53' E 024°26'4 6.7
2017-Nov-17 04:59N 40°56' E 024°25'0 0.0
2017-Nov-17 04:29N 40°56' E 024°25'0 0.0
2017-Nov-17 03:56N 40°56' E 024°25'0 0.0
2017-Nov-17 03:29N 40°56' E 024°25'0 0.0
2017-Nov-17 02:59N 40°56' E 024°25'0 0.0
2017-Nov-17 02:26N 40°56' E 024°25'0 0.0
2017-Nov-17 01:56N 40°56' E 024°25'0 0.0
2017-Nov-17 01:29N 40°56' E 024°25'0 0.0
2017-Nov-17 00:59N 40°56' E 024°25'0 0.0
2017-Nov-17 00:29N 40°56' E 024°25'0 0.0
2017-Nov-16 23:59N 40°56' E 024°25'0 0.0
2017-Nov-16 23:29N 40°56' E 024°25'0 0.0
2017-Nov-16 22:59N 40°56' E 024°25'4 8.9
2017-Nov-16 22:30N 40°52' E 024°27'5 9.0
2017-Nov-16 21:59N 40°48' E 024°30'511.4
2017-Nov-16 21:31N 40°53' E 024°26'3 2.6
2017-Nov-16 20:11N 40°56' E 024°25'0 0.0
2017-Nov-16 19:59N 40°56' E 024°25'0 0.0
2017-Nov-16 19:29N 40°56' E 024°25'0 0.2
2017-Nov-16 19:00N 40°56' E 024°25'814.6
2017-Nov-16 18:29N 40°49' E 024°30'2 2.9
2017-Nov-16 17:57N 40°48' E 024°30'511.9
2017-Nov-16 17:30N 40°53' E 024°26'4 7.0
2017-Nov-16 16:59N 40°56' E 024°25'0 0.0
2017-Nov-16 16:29N 40°56' E 024°25'0 0.0
2017-Nov-16 15:59N 40°56' E 024°25'0 0.0
2017-Nov-16 15:29N 40°56' E 024°25'0 0.0
2017-Nov-16 14:59N 40°56' E 024°25'511.1
2017-Nov-16 14:30N 40°51' E 024°27'4 7.1
2017-Nov-16 14:00N 40°48' E 024°30'510.6
2017-Nov-16 13:30N 40°53' E 024°26'4 6.7
2017-Nov-16 12:58N 40°56' E 024°25'0 0.0
2017-Nov-16 12:28N 40°56' E 024°25'2 4.7
2017-Nov-16 12:00N 40°54' E 024°25'714.1
2017-Nov-16 11:30N 40°48' E 024°30'4 8.9
2017-Nov-16 11:00N 40°52' E 024°27'5 7.6
2017-Nov-16 10:24N 40°56' E 024°25'0 0.0
2017-Nov-16 10:00N 40°56' E 024°25'0 0.0
2017-Nov-16 09:30N 40°56' E 024°25'0 0.0
2017-Nov-16 08:57N 40°56' E 024°25'0 0.0
2017-Nov-16 08:27N 40°56' E 024°25'0 0.0
2017-Nov-16 07:39N 40°56' E 024°25'0 0.0
2017-Nov-16 07:30N 40°56' E 024°25'0 0.0
2017-Nov-16 07:00N 40°56' E 024°25'0 0.0
2017-Nov-16 06:30N 40°56' E 024°25'0 0.0
2017-Nov-16 06:00N 40°56' E 024°25'0 0.0
2017-Nov-16 05:30N 40°56' E 024°25'0 0.0
2017-Nov-16 05:00N 40°56' E 024°25'0 0.0
2017-Nov-16 04:30N 40°56' E 024°25'0 0.0
2017-Nov-16 03:54N 40°56' E 024°25'0 0.0
2017-Nov-16 03:30N 40°56' E 024°25'0 0.0
2017-Nov-16 03:00N 40°56' E 024°25'0 0.0
2017-Nov-16 02:30N 40°56' E 024°25'0 0.0
2017-Nov-16 02:00N 40°56' E 024°25'0 0.0
2017-Nov-16 01:24N 40°56' E 024°25'0 0.0
2017-Nov-16 01:00N 40°56' E 024°25'0 0.0
2017-Nov-16 00:30N 40°56' E 024°25'0 0.0
2017-Nov-16 00:00N 40°56' E 024°25'0 0.0
2017-Nov-15 23:30N 40°56' E 024°25'0 0.0
2017-Nov-15 23:00N 40°56' E 024°25'510.1
2017-Nov-15 22:30N 40°52' E 024°28'4 7.2
2017-Nov-15 21:58N 40°48' E 024°30'512.0
2017-Nov-15 21:31N 40°53' E 024°26'3 6.7
2017-Nov-15 21:00N 40°56' E 024°25'0 0.0
2017-Nov-15 20:27N 40°56' E 024°25'0 0.0
2017-Nov-15 19:54N 40°56' E 024°25'0 0.0
2017-Nov-15 19:30N 40°56' E 024°25'0 0.3
2017-Nov-15 19:00N 40°56' E 024°25'713.7
2017-Nov-15 18:31N 40°50' E 024°30'2 4.9
2017-Nov-15 18:00N 40°48' E 024°30'510.1
2017-Nov-15 17:30N 40°52' E 024°27'4 7.4
2017-Nov-15 16:59N 40°56' E 024°25'0 0.0
2017-Nov-15 16:29N 40°56' E 024°25'0 0.0
2017-Nov-15 15:59N 40°56' E 024°25'0 0.0
2017-Nov-15 15:23N 40°56' E 024°25'0 0.4
2017-Nov-15 15:01N 40°56' E 024°25'612.5
2017-Nov-15 14:30N 40°51' E 024°29'3 5.5
2017-Nov-15 14:00N 40°48' E 024°30'612.0
2017-Nov-15 13:30N 40°53' E 024°26'3 5.8
2017-Nov-15 12:59N 40°56' E 024°25'0 0.0
2017-Nov-15 12:29N 40°56' E 024°25'0 0.0
2017-Nov-15 11:59N 40°56' E 024°25'0 0.0
2017-Nov-15 11:26N 40°56' E 024°25'0 0.0
2017-Nov-15 10:59N 40°56' E 024°25'0 0.0
2017-Nov-15 10:29N 40°56' E 024°25'0 0.0
2017-Nov-15 09:59N 40°56' E 024°25'0 0.0
2017-Nov-15 09:14N 40°56' E 024°25'0 0.0
2017-Nov-15 08:59N 40°56' E 024°25'0 0.0
2017-Nov-15 08:29N 40°56' E 024°25'0 0.0
2017-Nov-15 07:59N 40°56' E 024°25'0 0.0
2017-Nov-15 07:29N 40°56' E 024°25'0 0.4
2017-Nov-15 07:00N 40°56' E 024°25'611.5
2017-Nov-15 06:29N 40°51' E 024°28'3 6.3
2017-Nov-15 06:00N 40°48' E 024°30'611.2
2017-Nov-15 05:31N 40°53' E 024°26'3 6.4
2017-Nov-15 05:00N 40°56' E 024°25'0 0.0
2017-Nov-15 04:30N 40°56' E 024°25'0 0.0
2017-Nov-15 04:00N 40°56' E 024°25'0 0.0
2017-Nov-15 03:30N 40°56' E 024°25'0 0.0
2017-Nov-15 03:00N 40°56' E 024°25'0 0.0
2017-Nov-15 02:30N 40°56' E 024°25'0 0.0
2017-Nov-15 02:00N 40°56' E 024°25'0 0.0
2017-Nov-15 01:30N 40°56' E 024°25'0 0.0
2017-Nov-15 01:00N 40°56' E 024°25'0 0.0
2017-Nov-15 00:27N 40°56' E 024°25'0 0.0
2017-Nov-14 23:57N 40°56' E 024°25'0 0.0
2017-Nov-14 23:30N 40°56' E 024°25'0 0.0
2017-Nov-14 23:00N 40°56' E 024°25'0 0.0
2017-Nov-14 22:27N 40°56' E 024°25'0 0.0
2017-Nov-14 22:00N 40°56' E 024°25'0 0.0
2017-Nov-14 21:30N 40°56' E 024°25'0 0.0
2017-Nov-14 21:00N 40°56' E 024°25'0 0.0
2017-Nov-14 20:30N 40°56' E 024°25'0 0.0
2017-Nov-14 20:00N 40°56' E 024°25'0 0.0
2017-Nov-14 19:30N 40°56' E 024°25'0 0.0
2017-Nov-14 18:57N 40°56' E 024°25'0 0.0
2017-Nov-14 18:30N 40°56' E 024°25'0 0.0
2017-Nov-14 18:00N 40°56' E 024°25'0 0.0
2017-Nov-14 17:30N 40°56' E 024°25'0 0.0
2017-Nov-14 17:00N 40°56' E 024°25'0 0.0
2017-Nov-14 16:30N 40°56' E 024°25'0 0.0
2017-Nov-14 16:00N 40°56' E 024°25'0 0.0
2017-Nov-14 15:30N 40°56' E 024°25'0 0.0
2017-Nov-14 15:00N 40°56' E 024°25'5 9.6
2017-Nov-14 14:30N 40°51' E 024°27'4 8.7
2017-Nov-14 14:00N 40°48' E 024°30'612.2
2017-Nov-14 13:30N 40°53' E 024°26'3 6.1
2017-Nov-14 13:01N 40°56' E 024°25'0 0.0
2017-Nov-14 12:31N 40°56' E 024°25'0 0.0
2017-Nov-14 12:01N 40°56' E 024°25'0 0.0
2017-Nov-14 11:31N 40°56' E 024°25'0 0.0
2017-Nov-14 11:01N 40°56' E 024°25'0 0.0
2017-Nov-14 10:28N 40°56' E 024°25'0 0.0
2017-Nov-14 09:58N 40°56' E 024°25'0 0.0
2017-Nov-14 09:27N 40°56' E 024°25'0 0.0
2017-Nov-14 08:57N 40°56' E 024°25'0 0.0
2017-Nov-14 08:28N 40°56' E 024°25'0 0.0
2017-Nov-14 07:46N 40°56' E 024°25'0 0.0
2017-Nov-14 07:30N 40°56' E 024°25'0 0.0
2017-Nov-14 06:58N 40°56' E 024°25'613.1
2017-Nov-14 06:29N 40°50' E 024°28'3 5.7
2017-Nov-14 06:00N 40°48' E 024°30'510.9
2017-Nov-14 05:30N 40°53' E 024°26'3 6.9
2017-Nov-14 05:00N 40°56' E 024°25'0 0.0
2017-Nov-14 04:27N 40°56' E 024°25'0 0.0
2017-Nov-14 04:00N 40°56' E 024°25'0 0.0
2017-Nov-14 03:30N 40°56' E 024°25'0 0.0
2017-Nov-14 03:00N 40°56' E 024°25'0 0.0
2017-Nov-14 02:30N 40°56' E 024°25'0 0.0
2017-Nov-14 02:00N 40°56' E 024°25'0 0.0
2017-Nov-14 01:30N 40°56' E 024°25'0 0.0
2017-Nov-14 01:00N 40°56' E 024°25'0 0.0
2017-Nov-14 00:30N 40°56' E 024°25'0 0.0
2017-Nov-14 00:00N 40°56' E 024°25'0 0.0
2017-Nov-13 23:27N 40°56' E 024°25'0 0.0
2017-Nov-13 22:54N 40°56' E 024°25'0 0.0
2017-Nov-13 22:24N 40°56' E 024°25'0 0.0
2017-Nov-13 22:00N 40°56' E 024°25'  

Dump ship's entire track history